Στοιχεία αεροπορικών μετεωρολογικών δεδομένων METAR     LEVC Valencia Airport



θερμοκρασία
23°C θερμοκρασία
12°C Σημείο δρόσου
50% Υγρασία



Ανεμος
14 KM/H
9 MPH
4 M/S
8 KTS



50°
VA
Τρέχουσες συνθήκες

Μερικώς συννεφιασμένος Μερικώς συννεφιασμένος
πίεση 1021.92 (hPa) - 30.18 (inHg)
Ορατότητα 6.2 (μίλι) - 10 (km)
Aεροδρόμιο
Κωδικός αεροδρομίου LEVC

Τοποθεσία: Valencia Airport
Απόσταση: 18 (km)

Metar:
LEVC 211130Z 05008KT 340V090 9999 FEW045 23/12 Q1022 NOSIG

ώρα: 21-09-2021 13:30 CEST

Follow @meteolliria2013